sensor_id;sensor_type;location;lat;lon;timestamp;P1;durP1;ratioP1;P2;durP2;ratioP2
12151;SDS011;6139;51.274;7.128;2022-07-22T00:00:39;27.60;;;23.05;;
12151;SDS011;6139;51.274;7.128;2022-07-22T00:01:40;25.83;;;23.00;;
12151;SDS011;6139;51.274;7.128;2022-07-22T00:02:42;24.63;;;20.63;;
12151;SDS011;6139;51.274;7.128;2022-07-22T00:03:44;23.88;;;21.23;;
12151;SDS011;6139;51.274;7.128;2022-07-22T00:04:45;23.73;;;21.10;;
12151;SDS011;6139;51.274;7.128;2022-07-22T00:05:48;21.80;;;19.45;;
12151;SDS011;6139;51.274;7.128;2022-07-22T00:06:49;22.13;;;19.73;;
12151;SDS011;6139;51.274;7.128;2022-07-22T00:07:51;21.17;;;18.88;;
12151;SDS011;6139;51.274;7.128;2022-07-22T00:08:52;22.42;;;19.63;;
12151;SDS011;6139;51.274;7.128;2022-07-22T00:09:54;21.17;;;18.88;;
12151;SDS011;6139;51.274;7.128;2022-07-22T00:10:55;21.08;;;18.85;;
12151;SDS011;6139;51.274;7.128;2022-07-22T00:11:57;20.17;;;18.02;;
12151;SDS011;6139;51.274;7.128;2022-07-22T00:12:58;20.15;;;17.98;;
12151;SDS011;6139;51.274;7.128;2022-07-22T00:14:00;20.23;;;17.83;;
12151;SDS011;6139;51.274;7.128;2022-07-22T00:15:02;20.42;;;17.50;;
12151;SDS011;6139;51.274;7.128;2022-07-22T00:16:04;18.85;;;16.85;;
12151;SDS011;6139;51.274;7.128;2022-07-22T00:17:07;20.15;;;17.15;;
12151;SDS011;6139;51.274;7.128;2022-07-22T00:18:08;19.88;;;17.77;;
12151;SDS011;6139;51.274;7.128;2022-07-22T00:19:09;20.10;;;17.40;;
12151;SDS011;6139;51.274;7.128;2022-07-22T00:20:12;18.02;;;15.88;;
12151;SDS011;6139;51.274;7.128;2022-07-22T00:21:14;16.95;;;15.20;;
12151;SDS011;6139;51.274;7.128;2022-07-22T00:22:16;18.02;;;16.02;;
12151;SDS011;6139;51.274;7.128;2022-07-22T00:23:17;17.63;;;15.80;;
12151;SDS011;6139;51.274;7.128;2022-07-22T00:24:19;16.83;;;15.02;;
12151;SDS011;6139;51.274;7.128;2022-07-22T00:25:20;17.70;;;15.90;;
12151;SDS011;6139;51.274;7.128;2022-07-22T00:26:22;18.63;;;16.75;;
12151;SDS011;6139;51.274;7.128;2022-07-22T00:27:23;17.23;;;15.38;;
12151;SDS011;6139;51.274;7.128;2022-07-22T00:28:25;18.38;;;16.40;;
12151;SDS011;6139;51.274;7.128;2022-07-22T00:29:27;18.25;;;16.35;;
12151;SDS011;6139;51.274;7.128;2022-07-22T00:30:29;17.65;;;15.82;;
12151;SDS011;6139;51.274;7.128;2022-07-22T00:31:30;17.60;;;15.35;;
12151;SDS011;6139;51.274;7.128;2022-07-22T00:32:32;17.67;;;15.88;;
12151;SDS011;6139;51.274;7.128;2022-07-22T00:33:33;16.88;;;15.20;;
12151;SDS011;6139;51.274;7.128;2022-07-22T00:34:35;17.60;;;15.70;;
12151;SDS011;6139;51.274;7.128;2022-07-22T00:35:36;17.80;;;15.98;;
12151;SDS011;6139;51.274;7.128;2022-07-22T00:36:39;16.77;;;15.07;;
12151;SDS011;6139;51.274;7.128;2022-07-22T00:37:40;17.02;;;15.10;;
12151;SDS011;6139;51.274;7.128;2022-07-22T00:38:42;16.40;;;14.77;;
12151;SDS011;6139;51.274;7.128;2022-07-22T00:39:43;15.52;;;13.93;;
12151;SDS011;6139;51.274;7.128;2022-07-22T00:40:45;14.77;;;13.13;;
12151;SDS011;6139;51.274;7.128;2022-07-22T00:41:46;13.00;;;11.70;;
12151;SDS011;6139;51.274;7.128;2022-07-22T00:42:48;11.88;;;10.68;;
12151;SDS011;6139;51.274;7.128;2022-07-22T00:43:53;11.15;;;10.15;;
12151;SDS011;6139;51.274;7.128;2022-07-22T00:44:56;11.77;;;10.57;;
12151;SDS011;6139;51.274;7.128;2022-07-22T00:45:57;10.93;;;9.82;;
12151;SDS011;6139;51.274;7.128;2022-07-22T00:46:59;11.10;;;10.02;;
12151;SDS011;6139;51.274;7.128;2022-07-22T00:48:01;13.02;;;10.75;;
12151;SDS011;6139;51.274;7.128;2022-07-22T00:49:03;12.55;;;10.95;;
12151;SDS011;6139;51.274;7.128;2022-07-22T00:50:06;11.88;;;10.63;;
12151;SDS011;6139;51.274;7.128;2022-07-22T00:51:08;12.70;;;11.40;;
12151;SDS011;6139;51.274;7.128;2022-07-22T00:52:10;13.00;;;11.63;;
12151;SDS011;6139;51.274;7.128;2022-07-22T00:53:13;12.45;;;11.15;;
12151;SDS011;6139;51.274;7.128;2022-07-22T00:54:16;13.05;;;11.63;;
12151;SDS011;6139;51.274;7.128;2022-07-22T00:55:18;14.48;;;12.43;;
12151;SDS011;6139;51.274;7.128;2022-07-22T00:56:19;12.05;;;10.85;;
12151;SDS011;6139;51.274;7.128;2022-07-22T00:57:22;12.75;;;11.48;;
12151;SDS011;6139;51.274;7.128;2022-07-22T00:58:23;11.00;;;9.93;;
12151;SDS011;6139;51.274;7.128;2022-07-22T00:59:24;12.98;;;11.63;;
12151;SDS011;6139;51.274;7.128;2022-07-22T01:00:25;10.82;;;9.73;;
12151;SDS011;6139;51.274;7.128;2022-07-22T01:01:27;11.80;;;10.60;;
12151;SDS011;6139;51.274;7.128;2022-07-22T01:02:28;10.85;;;9.75;;
12151;SDS011;6139;51.274;7.128;2022-07-22T01:03:31;10.60;;;9.05;;
12151;SDS011;6139;51.274;7.128;2022-07-22T01:04:32;10.68;;;9.65;;
12151;SDS011;6139;51.274;7.128;2022-07-22T01:05:34;9.52;;;8.52;;
12151;SDS011;6139;51.274;7.128;2022-07-22T01:06:35;9.45;;;8.55;;
12151;SDS011;6139;51.274;7.128;2022-07-22T01:07:38;10.70;;;9.00;;
12151;SDS011;6139;51.274;7.128;2022-07-22T01:08:41;9.60;;;8.70;;
12151;SDS011;6139;51.274;7.128;2022-07-22T01:09:43;10.15;;;9.18;;
12151;SDS011;6139;51.274;7.128;2022-07-22T01:10:45;10.80;;;9.70;;
12151;SDS011;6139;51.274;7.128;2022-07-22T01:11:47;10.05;;;9.05;;
12151;SDS011;6139;51.274;7.128;2022-07-22T01:12:50;10.60;;;9.50;;
12151;SDS011;6139;51.274;7.128;2022-07-22T01:13:51;10.05;;;9.05;;
12151;SDS011;6139;51.274;7.128;2022-07-22T01:14:54;10.88;;;9.77;;
12151;SDS011;6139;51.274;7.128;2022-07-22T01:15:55;10.55;;;9.45;;
12151;SDS011;6139;51.274;7.128;2022-07-22T01:16:57;11.00;;;9.90;;
12151;SDS011;6139;51.274;7.128;2022-07-22T01:17:59;10.32;;;9.32;;
12151;SDS011;6139;51.274;7.128;2022-07-22T01:19:00;10.23;;;9.23;;
12151;SDS011;6139;51.274;7.128;2022-07-22T01:20:04;9.57;;;8.68;;
12151;SDS011;6139;51.274;7.128;2022-07-22T01:21:06;9.05;;;7.95;;
12151;SDS011;6139;51.274;7.128;2022-07-22T01:22:09;10.27;;;9.18;;
12151;SDS011;6139;51.274;7.128;2022-07-22T01:23:10;9.77;;;8.88;;
12151;SDS011;6139;51.274;7.128;2022-07-22T01:24:12;9.75;;;8.75;;
12151;SDS011;6139;51.274;7.128;2022-07-22T01:25:13;8.50;;;7.70;;
12151;SDS011;6139;51.274;7.128;2022-07-22T01:26:15;8.82;;;7.93;;
12151;SDS011;6139;51.274;7.128;2022-07-22T01:27:17;10.20;;;9.20;;
12151;SDS011;6139;51.274;7.128;2022-07-22T01:28:19;9.93;;;9.00;;
12151;SDS011;6139;51.274;7.128;2022-07-22T01:29:22;9.00;;;8.15;;
12151;SDS011;6139;51.274;7.128;2022-07-22T01:30:24;9.90;;;8.73;;
12151;SDS011;6139;51.274;7.128;2022-07-22T01:31:25;9.85;;;8.80;;
12151;SDS011;6139;51.274;7.128;2022-07-22T01:32:28;9.57;;;8.68;;
12151;SDS011;6139;51.274;7.128;2022-07-22T01:33:30;10.52;;;9.43;;
12151;SDS011;6139;51.274;7.128;2022-07-22T01:34:31;10.48;;;9.30;;
12151;SDS011;6139;51.274;7.128;2022-07-22T01:35:34;11.23;;;9.30;;
12151;SDS011;6139;51.274;7.128;2022-07-22T01:36:37;9.05;;;8.15;;
12151;SDS011;6139;51.274;7.128;2022-07-22T01:37:38;11.32;;;9.40;;
12151;SDS011;6139;51.274;7.128;2022-07-22T01:38:40;10.18;;;9.18;;
12151;SDS011;6139;51.274;7.128;2022-07-22T01:39:41;10.60;;;9.32;;
12151;SDS011;6139;51.274;7.128;2022-07-22T01:40:44;12.05;;;10.38;;
12151;SDS011;6139;51.274;7.128;2022-07-22T01:41:46;11.85;;;10.57;;
12151;SDS011;6139;51.274;7.128;2022-07-22T01:42:48;12.68;;;10.50;;
12151;SDS011;6139;51.274;7.128;2022-07-22T01:43:49;11.32;;;10.13;;
12151;SDS011;6139;51.274;7.128;2022-07-22T01:44:51;11.18;;;9.98;;
12151;SDS011;6139;51.274;7.128;2022-07-22T01:45:53;11.93;;;10.10;;
12151;SDS011;6139;51.274;7.128;2022-07-22T01:46:55;12.07;;;10.57;;
12151;SDS011;6139;51.274;7.128;2022-07-22T01:47:58;11.30;;;10.20;;
12151;SDS011;6139;51.274;7.128;2022-07-22T01:49:00;11.30;;;10.10;;
12151;SDS011;6139;51.274;7.128;2022-07-22T01:50:07;14.95;;;11.32;;
12151;SDS011;6139;51.274;7.128;2022-07-22T01:51:11;14.60;;;11.15;;
12151;SDS011;6139;51.274;7.128;2022-07-22T01:52:13;14.13;;;11.60;;
12151;SDS011;6139;51.274;7.128;2022-07-22T01:53:16;14.90;;;11.15;;
12151;SDS011;6139;51.274;7.128;2022-07-22T01:54:19;14.40;;;11.52;;
12151;SDS011;6139;51.274;7.128;2022-07-22T01:55:21;13.10;;;11.00;;
12151;SDS011;6139;51.274;7.128;2022-07-22T01:56:22;15.45;;;11.40;;
12151;SDS011;6139;51.274;7.128;2022-07-22T01:57:24;12.52;;;10.20;;
12151;SDS011;6139;51.274;7.128;2022-07-22T01:58:27;12.40;;;10.40;;
12151;SDS011;6139;51.274;7.128;2022-07-22T01:59:30;12.93;;;10.20;;
12151;SDS011;6139;51.274;7.128;2022-07-22T02:00:34;11.23;;;9.60;;
12151;SDS011;6139;51.274;7.128;2022-07-22T02:01:37;11.63;;;9.10;;
12151;SDS011;6139;51.274;7.128;2022-07-22T02:02:39;12.55;;;9.57;;
12151;SDS011;6139;51.274;7.128;2022-07-22T02:03:40;13.55;;;9.23;;
12151;SDS011;6139;51.274;7.128;2022-07-22T02:04:43;10.57;;;8.80;;
12151;SDS011;6139;51.274;7.128;2022-07-22T02:05:44;14.77;;;9.85;;
12151;SDS011;6139;51.274;7.128;2022-07-22T02:06:55;12.38;;;9.85;;
12151;SDS011;6139;51.274;7.128;2022-07-22T02:08:00;11.13;;;9.05;;
12151;SDS011;6139;51.274;7.128;2022-07-22T02:09:06;13.85;;;9.73;;
12151;SDS011;6139;51.274;7.128;2022-07-22T02:10:12;11.40;;;10.02;;
12151;SDS011;6139;51.274;7.128;2022-07-22T02:11:14;12.15;;;10.10;;
12151;SDS011;6139;51.274;7.128;2022-07-22T02:12:24;12.45;;;10.80;;
12151;SDS011;6139;51.274;7.128;2022-07-22T02:13:26;12.13;;;9.88;;
12151;SDS011;6139;51.274;7.128;2022-07-22T02:14:27;12.70;;;10.20;;
12151;SDS011;6139;51.274;7.128;2022-07-22T02:15:29;11.68;;;9.40;;
12151;SDS011;6139;51.274;7.128;2022-07-22T02:16:34;11.57;;;9.75;;
12151;SDS011;6139;51.274;7.128;2022-07-22T02:17:39;12.68;;;9.80;;
12151;SDS011;6139;51.274;7.128;2022-07-22T02:18:41;11.38;;;9.07;;
12151;SDS011;6139;51.274;7.128;2022-07-22T02:19:44;10.55;;;9.20;;
12151;SDS011;6139;51.274;7.128;2022-07-22T02:20:46;11.90;;;9.05;;
12151;SDS011;6139;51.274;7.128;2022-07-22T02:21:48;11.30;;;9.40;;
12151;SDS011;6139;51.274;7.128;2022-07-22T02:22:51;10.50;;;8.75;;
12151;SDS011;6139;51.274;7.128;2022-07-22T02:23:54;11.48;;;8.30;;
12151;SDS011;6139;51.274;7.128;2022-07-22T02:24:55;11.70;;;8.63;;
12151;SDS011;6139;51.274;7.128;2022-07-22T02:25:57;11.18;;;8.60;;
12151;SDS011;6139;51.274;7.128;2022-07-22T02:27:00;13.57;;;9.23;;
12151;SDS011;6139;51.274;7.128;2022-07-22T02:28:04;11.27;;;8.40;;
12151;SDS011;6139;51.274;7.128;2022-07-22T02:29:05;10.70;;;8.57;;
12151;SDS011;6139;51.274;7.128;2022-07-22T02:30:07;10.88;;;8.90;;
12151;SDS011;6139;51.274;7.128;2022-07-22T02:31:09;10.90;;;8.52;;
12151;SDS011;6139;51.274;7.128;2022-07-22T02:32:12;11.77;;;9.13;;
12151;SDS011;6139;51.274;7.128;2022-07-22T02:33:13;14.77;;;9.63;;
12151;SDS011;6139;51.274;7.128;2022-07-22T02:34:15;12.35;;;8.77;;
12151;SDS011;6139;51.274;7.128;2022-07-22T02:35:17;10.73;;;8.75;;
12151;SDS011;6139;51.274;7.128;2022-07-22T02:36:19;12.25;;;9.07;;
12151;SDS011;6139;51.274;7.128;2022-07-22T02:37:21;11.48;;;9.15;;
12151;SDS011;6139;51.274;7.128;2022-07-22T02:38:25;13.40;;;9.35;;
12151;SDS011;6139;51.274;7.128;2022-07-22T02:39:26;11.45;;;8.32;;
12151;SDS011;6139;51.274;7.128;2022-07-22T02:40:29;11.45;;;8.75;;
12151;SDS011;6139;51.274;7.128;2022-07-22T02:41:31;10.70;;;8.20;;
12151;SDS011;6139;51.274;7.128;2022-07-22T02:42:33;10.32;;;8.75;;
12151;SDS011;6139;51.274;7.128;2022-07-22T02:43:34;9.35;;;8.05;;
12151;SDS011;6139;51.274;7.128;2022-07-22T02:44:36;9.70;;;7.85;;
12151;SDS011;6139;51.274;7.128;2022-07-22T02:45:38;8.57;;;6.47;;
12151;SDS011;6139;51.274;7.128;2022-07-22T02:46:40;7.38;;;6.13;;
12151;SDS011;6139;51.274;7.128;2022-07-22T02:47:49;7.60;;;6.80;;
12151;SDS011;6139;51.274;7.128;2022-07-22T02:48:53;6.88;;;5.82;;
12151;SDS011;6139;51.274;7.128;2022-07-22T02:49:55;6.93;;;6.22;;
12151;SDS011;6139;51.274;7.128;2022-07-22T02:50:58;6.80;;;5.95;;
12151;SDS011;6139;51.274;7.128;2022-07-22T02:52:02;8.68;;;5.88;;
12151;SDS011;6139;51.274;7.128;2022-07-22T02:53:04;7.43;;;6.03;;
12151;SDS011;6139;51.274;7.128;2022-07-22T02:54:11;6.35;;;5.53;;
12151;SDS011;6139;51.274;7.128;2022-07-22T02:55:13;5.65;;;4.85;;
12151;SDS011;6139;51.274;7.128;2022-07-22T02:56:16;5.57;;;3.97;;
12151;SDS011;6139;51.274;7.128;2022-07-22T02:57:19;5.07;;;4.50;;
12151;SDS011;6139;51.274;7.128;2022-07-22T02:58:21;5.10;;;4.07;;
12151;SDS011;6139;51.274;7.128;2022-07-22T02:59:23;4.90;;;4.28;;
12151;SDS011;6139;51.274;7.128;2022-07-22T03:00:26;6.75;;;4.30;;
12151;SDS011;6139;51.274;7.128;2022-07-22T03:01:27;5.53;;;4.13;;
12151;SDS011;6139;51.274;7.128;2022-07-22T03:02:33;5.10;;;4.38;;
12151;SDS011;6139;51.274;7.128;2022-07-22T03:03:34;4.80;;;4.30;;
12151;SDS011;6139;51.274;7.128;2022-07-22T03:04:36;5.25;;;4.15;;
12151;SDS011;6139;51.274;7.128;2022-07-22T03:05:37;4.38;;;3.72;;
12151;SDS011;6139;51.274;7.128;2022-07-22T03:07:05;5.82;;;4.68;;
12151;SDS011;6139;51.274;7.128;2022-07-22T03:08:07;6.65;;;4.28;;
12151;SDS011;6139;51.274;7.128;2022-07-22T03:09:08;5.43;;;4.18;;
12151;SDS011;6139;51.274;7.128;2022-07-22T03:10:16;5.90;;;4.30;;
12151;SDS011;6139;51.274;7.128;2022-07-22T03:11:18;6.82;;;4.45;;
12151;SDS011;6139;51.274;7.128;2022-07-22T03:12:19;4.82;;;4.32;;
12151;SDS011;6139;51.274;7.128;2022-07-22T03:13:22;4.97;;;4.40;;
12151;SDS011;6139;51.274;7.128;2022-07-22T03:14:23;6.00;;;4.90;;
12151;SDS011;6139;51.274;7.128;2022-07-22T03:15:24;5.72;;;5.13;;
12151;SDS011;6139;51.274;7.128;2022-07-22T03:16:25;6.00;;;5.35;;
12151;SDS011;6139;51.274;7.128;2022-07-22T03:17:27;6.32;;;5.15;;
12151;SDS011;6139;51.274;7.128;2022-07-22T03:18:28;6.25;;;5.30;;
12151;SDS011;6139;51.274;7.128;2022-07-22T03:19:30;5.97;;;5.35;;
12151;SDS011;6139;51.274;7.128;2022-07-22T03:20:32;7.75;;;5.97;;
12151;SDS011;6139;51.274;7.128;2022-07-22T03:21:34;7.10;;;6.25;;
12151;SDS011;6139;51.274;7.128;2022-07-22T03:22:35;7.95;;;5.82;;
12151;SDS011;6139;51.274;7.128;2022-07-22T03:23:39;8.60;;;6.03;;
12151;SDS011;6139;51.274;7.128;2022-07-22T03:24:40;8.90;;;6.00;;
12151;SDS011;6139;51.274;7.128;2022-07-22T03:25:43;7.32;;;6.28;;
12151;SDS011;6139;51.274;7.128;2022-07-22T03:26:44;8.20;;;6.38;;
12151;SDS011;6139;51.274;7.128;2022-07-22T03:27:46;7.35;;;6.25;;
12151;SDS011;6139;51.274;7.128;2022-07-22T03:28:48;6.93;;;5.90;;
12151;SDS011;6139;51.274;7.128;2022-07-22T03:29:50;8.02;;;5.95;;
12151;SDS011;6139;51.274;7.128;2022-07-22T03:30:52;7.88;;;6.30;;
12151;SDS011;6139;51.274;7.128;2022-07-22T03:31:53;7.95;;;6.38;;
12151;SDS011;6139;51.274;7.128;2022-07-22T03:33:10;8.25;;;6.93;;
12151;SDS011;6139;51.274;7.128;2022-07-22T03:34:14;9.15;;;6.97;;
12151;SDS011;6139;51.274;7.128;2022-07-22T03:35:24;7.30;;;6.57;;
12151;SDS011;6139;51.274;7.128;2022-07-22T03:36:25;7.80;;;6.45;;
12151;SDS011;6139;51.274;7.128;2022-07-22T03:37:27;7.85;;;6.78;;
12151;SDS011;6139;51.274;7.128;2022-07-22T03:38:28;8.50;;;6.70;;
12151;SDS011;6139;51.274;7.128;2022-07-22T03:39:31;8.45;;;7.00;;
12151;SDS011;6139;51.274;7.128;2022-07-22T03:40:32;7.43;;;6.38;;
12151;SDS011;6139;51.274;7.128;2022-07-22T03:41:35;10.27;;;7.03;;
12151;SDS011;6139;51.274;7.128;2022-07-22T03:42:36;9.60;;;6.93;;
12151;SDS011;6139;51.274;7.128;2022-07-22T03:43:38;10.93;;;7.63;;
12151;SDS011;6139;51.274;7.128;2022-07-22T03:44:40;8.50;;;7.25;;
12151;SDS011;6139;51.274;7.128;2022-07-22T03:45:41;11.15;;;7.97;;
12151;SDS011;6139;51.274;7.128;2022-07-22T03:46:45;10.73;;;8.43;;
12151;SDS011;6139;51.274;7.128;2022-07-22T03:47:47;9.82;;;8.10;;
12151;SDS011;6139;51.274;7.128;2022-07-22T03:48:50;8.73;;;7.60;;
12151;SDS011;6139;51.274;7.128;2022-07-22T03:49:52;10.55;;;8.15;;
12151;SDS011;6139;51.274;7.128;2022-07-22T03:51:00;10.63;;;8.18;;
12151;SDS011;6139;51.274;7.128;2022-07-22T03:52:02;8.40;;;7.53;;
12151;SDS011;6139;51.274;7.128;2022-07-22T03:53:04;12.68;;;9.00;;
12151;SDS011;6139;51.274;7.128;2022-07-22T03:54:10;10.55;;;8.52;;
12151;SDS011;6139;51.274;7.128;2022-07-22T03:55:14;10.43;;;8.80;;
12151;SDS011;6139;51.274;7.128;2022-07-22T03:56:18;11.00;;;9.38;;
12151;SDS011;6139;51.274;7.128;2022-07-22T03:57:22;10.43;;;9.18;;
12151;SDS011;6139;51.274;7.128;2022-07-22T03:58:34;12.68;;;9.45;;
12151;SDS011;6139;51.274;7.128;2022-07-22T03:59:35;13.80;;;10.07;;
12151;SDS011;6139;51.274;7.128;2022-07-22T04:00:39;12.75;;;9.15;;
12151;SDS011;6139;51.274;7.128;2022-07-22T04:01:40;11.93;;;8.93;;
12151;SDS011;6139;51.274;7.128;2022-07-22T04:02:45;9.68;;;8.68;;
12151;SDS011;6139;51.274;7.128;2022-07-22T04:03:52;11.98;;;8.77;;
12151;SDS011;6139;51.274;7.128;2022-07-22T04:05:00;11.45;;;9.13;;
12151;SDS011;6139;51.274;7.128;2022-07-22T04:06:02;10.63;;;9.00;;
12151;SDS011;6139;51.274;7.128;2022-07-22T04:07:24;10.45;;;8.63;;
12151;SDS011;6139;51.274;7.128;2022-07-22T04:08:26;10.45;;;8.57;;
12151;SDS011;6139;51.274;7.128;2022-07-22T04:09:27;11.25;;;8.82;;
12151;SDS011;6139;51.274;7.128;2022-07-22T04:10:30;12.20;;;9.32;;
12151;SDS011;6139;51.274;7.128;2022-07-22T04:11:31;13.48;;;8.40;;
12151;SDS011;6139;51.274;7.128;2022-07-22T04:12:37;12.02;;;8.77;;
12151;SDS011;6139;51.274;7.128;2022-07-22T04:13:50;12.15;;;8.07;;
12151;SDS011;6139;51.274;7.128;2022-07-22T04:14:53;9.48;;;7.88;;
12151;SDS011;6139;51.274;7.128;2022-07-22T04:15:54;12.45;;;8.05;;
12151;SDS011;6139;51.274;7.128;2022-07-22T04:16:56;11.25;;;8.40;;
12151;SDS011;6139;51.274;7.128;2022-07-22T04:17:57;11.23;;;7.93;;
12151;SDS011;6139;51.274;7.128;2022-07-22T04:19:00;9.10;;;7.30;;
12151;SDS011;6139;51.274;7.128;2022-07-22T04:20:20;9.43;;;7.88;;
12151;SDS011;6139;51.274;7.128;2022-07-22T04:21:51;8.20;;;6.35;;
12151;SDS011;6139;51.274;7.128;2022-07-22T04:22:55;8.77;;;6.53;;
12151;SDS011;6139;51.274;7.128;2022-07-22T04:23:57;10.02;;;6.50;;
12151;SDS011;6139;51.274;7.128;2022-07-22T04:25:02;7.78;;;6.35;;
12151;SDS011;6139;51.274;7.128;2022-07-22T04:26:04;9.57;;;5.85;;
12151;SDS011;6139;51.274;7.128;2022-07-22T04:27:07;9.15;;;4.93;;
12151;SDS011;6139;51.274;7.128;2022-07-22T04:28:12;7.97;;;5.70;;
12151;SDS011;6139;51.274;7.128;2022-07-22T04:29:15;8.02;;;6.07;;
12151;SDS011;6139;51.274;7.128;2022-07-22T04:30:17;7.68;;;5.45;;
12151;SDS011;6139;51.274;7.128;2022-07-22T04:31:21;7.55;;;4.57;;
12151;SDS011;6139;51.274;7.128;2022-07-22T04:32:29;6.95;;;4.32;;
12151;SDS011;6139;51.274;7.128;2022-07-22T04:33:30;6.05;;;4.03;;
12151;SDS011;6139;51.274;7.128;2022-07-22T04:34:33;5.43;;;4.22;;
12151;SDS011;6139;51.274;7.128;2022-07-22T04:35:34;4.82;;;3.88;;
12151;SDS011;6139;51.274;7.128;2022-07-22T04:36:47;5.82;;;4.07;;
12151;SDS011;6139;51.274;7.128;2022-07-22T04:37:49;7.07;;;4.35;;
12151;SDS011;6139;51.274;7.128;2022-07-22T04:38:50;6.00;;;3.92;;
12151;SDS011;6139;51.274;7.128;2022-07-22T04:39:53;6.72;;;4.45;;
12151;SDS011;6139;51.274;7.128;2022-07-22T04:40:55;5.55;;;4.50;;
12151;SDS011;6139;51.274;7.128;2022-07-22T04:41:58;6.68;;;4.35;;
12151;SDS011;6139;51.274;7.128;2022-07-22T04:43:01;9.13;;;6.53;;
12151;SDS011;6139;51.274;7.128;2022-07-22T04:44:03;6.72;;;5.00;;
12151;SDS011;6139;51.274;7.128;2022-07-22T04:45:07;7.55;;;6.40;;
12151;SDS011;6139;51.274;7.128;2022-07-22T04:46:09;8.07;;;6.05;;
12151;SDS011;6139;51.274;7.128;2022-07-22T04:47:15;8.48;;;6.60;;
12151;SDS011;6139;51.274;7.128;2022-07-22T04:48:16;11.45;;;7.15;;
12151;SDS011;6139;51.274;7.128;2022-07-22T04:49:21;7.85;;;6.93;;
12151;SDS011;6139;51.274;7.128;2022-07-22T04:50:23;8.85;;;7.40;;
12151;SDS011;6139;51.274;7.128;2022-07-22T04:51:33;8.10;;;7.30;;
12151;SDS011;6139;51.274;7.128;2022-07-22T04:52:38;12.43;;;7.38;;
12151;SDS011;6139;51.274;7.128;2022-07-22T04:53:40;9.55;;;7.50;;
12151;SDS011;6139;51.274;7.128;2022-07-22T04:54:41;11.20;;;7.63;;
12151;SDS011;6139;51.274;7.128;2022-07-22T04:55:43;12.68;;;7.95;;
12151;SDS011;6139;51.274;7.128;2022-07-22T04:56:44;10.25;;;8.10;;
12151;SDS011;6139;51.274;7.128;2022-07-22T04:57:46;9.93;;;8.23;;
12151;SDS011;6139;51.274;7.128;2022-07-22T04:58:47;11.23;;;9.38;;
12151;SDS011;6139;51.274;7.128;2022-07-22T04:59:51;11.05;;;8.43;;
12151;SDS011;6139;51.274;7.128;2022-07-22T05:00:53;10.13;;;8.23;;
12151;SDS011;6139;51.274;7.128;2022-07-22T05:01:54;12.07;;;8.55;;
12151;SDS011;6139;51.274;7.128;2022-07-22T05:02:56;10.25;;;8.43;;
12151;SDS011;6139;51.274;7.128;2022-07-22T05:03:58;10.70;;;8.30;;
12151;SDS011;6139;51.274;7.128;2022-07-22T05:05:00;9.35;;;7.93;;
12151;SDS011;6139;51.274;7.128;2022-07-22T05:06:01;10.80;;;9.20;;
12151;SDS011;6139;51.274;7.128;2022-07-22T05:07:08;12.63;;;9.48;;
12151;SDS011;6139;51.274;7.128;2022-07-22T05:08:10;14.32;;;9.52;;
12151;SDS011;6139;51.274;7.128;2022-07-22T05:09:12;11.73;;;10.13;;
12151;SDS011;6139;51.274;7.128;2022-07-22T05:10:14;11.20;;;10.00;;
12151;SDS011;6139;51.274;7.128;2022-07-22T05:11:15;11.60;;;10.25;;
12151;SDS011;6139;51.274;7.128;2022-07-22T05:12:18;12.07;;;10.70;;
12151;SDS011;6139;51.274;7.128;2022-07-22T05:13:19;11.90;;;10.63;;
12151;SDS011;6139;51.274;7.128;2022-07-22T05:14:21;14.02;;;11.82;;
12151;SDS011;6139;51.274;7.128;2022-07-22T05:15:24;14.75;;;11.82;;
12151;SDS011;6139;51.274;7.128;2022-07-22T05:16:26;14.80;;;12.73;;
12151;SDS011;6139;51.274;7.128;2022-07-22T05:17:27;14.27;;;12.77;;
12151;SDS011;6139;51.274;7.128;2022-07-22T05:18:52;15.43;;;12.93;;
12151;SDS011;6139;51.274;7.128;2022-07-22T05:19:54;15.02;;;12.82;;
12151;SDS011;6139;51.274;7.128;2022-07-22T05:20:55;15.95;;;12.30;;
12151;SDS011;6139;51.274;7.128;2022-07-22T05:21:58;15.90;;;13.23;;
12151;SDS011;6139;51.274;7.128;2022-07-22T05:22:58;14.88;;;13.38;;
12151;SDS011;6139;51.274;7.128;2022-07-22T05:24:04;15.57;;;13.57;;
12151;SDS011;6139;51.274;7.128;2022-07-22T05:25:06;18.10;;;13.55;;
12151;SDS011;6139;51.274;7.128;2022-07-22T05:26:08;16.70;;;14.38;;
12151;SDS011;6139;51.274;7.128;2022-07-22T05:27:10;17.55;;;14.45;;
12151;SDS011;6139;51.274;7.128;2022-07-22T05:28:12;15.73;;;13.95;;
12151;SDS011;6139;51.274;7.128;2022-07-22T05:29:16;17.35;;;14.20;;
12151;SDS011;6139;51.274;7.128;2022-07-22T05:30:19;18.17;;;14.82;;
12151;SDS011;6139;51.274;7.128;2022-07-22T05:31:21;16.92;;;14.40;;
12151;SDS011;6139;51.274;7.128;2022-07-22T05:32:23;17.05;;;13.52;;
12151;SDS011;6139;51.274;7.128;2022-07-22T05:33:29;15.75;;;12.93;;
12151;SDS011;6139;51.274;7.128;2022-07-22T05:34:51;18.60;;;14.05;;
12151;SDS011;6139;51.274;7.128;2022-07-22T05:35:53;15.77;;;13.55;;
12151;SDS011;6139;51.274;7.128;2022-07-22T05:36:55;17.20;;;12.88;;
12151;SDS011;6139;51.274;7.128;2022-07-22T05:37:57;17.48;;;14.23;;
12151;SDS011;6139;51.274;7.128;2022-07-22T05:38:58;16.13;;;12.45;;
12151;SDS011;6139;51.274;7.128;2022-07-22T05:40:00;18.08;;;14.23;;
12151;SDS011;6139;51.274;7.128;2022-07-22T05:41:01;18.85;;;14.20;;
12151;SDS011;6139;51.274;7.128;2022-07-22T05:42:04;14.82;;;13.27;;
12151;SDS011;6139;51.274;7.128;2022-07-22T05:43:05;16.98;;;14.45;;
12151;SDS011;6139;51.274;7.128;2022-07-22T05:44:07;17.40;;;13.40;;
12151;SDS011;6139;51.274;7.128;2022-07-22T05:45:08;14.70;;;13.20;;
12151;SDS011;6139;51.274;7.128;2022-07-22T05:46:11;16.48;;;12.68;;
12151;SDS011;6139;51.274;7.128;2022-07-22T05:47:14;16.08;;;12.57;;
12151;SDS011;6139;51.274;7.128;2022-07-22T05:48:16;14.48;;;12.55;;
12151;SDS011;6139;51.274;7.128;2022-07-22T05:49:18;15.55;;;13.43;;
12151;SDS011;6139;51.274;7.128;2022-07-22T05:50:29;15.65;;;13.02;;
12151;SDS011;6139;51.274;7.128;2022-07-22T05:51:30;15.00;;;12.68;;
12151;SDS011;6139;51.274;7.128;2022-07-22T05:52:35;15.00;;;13.50;;
12151;SDS011;6139;51.274;7.128;2022-07-22T05:53:36;16.50;;;13.75;;
12151;SDS011;6139;51.274;7.128;2022-07-22T05:54:38;16.55;;;13.45;;
12151;SDS011;6139;51.274;7.128;2022-07-22T05:55:40;15.23;;;13.73;;
12151;SDS011;6139;51.274;7.128;2022-07-22T05:56:42;17.00;;;13.57;;
12151;SDS011;6139;51.274;7.128;2022-07-22T05:57:44;15.18;;;13.25;;
12151;SDS011;6139;51.274;7.128;2022-07-22T05:58:45;16.45;;;13.50;;
12151;SDS011;6139;51.274;7.128;2022-07-22T05:59:47;14.18;;;12.80;;
12151;SDS011;6139;51.274;7.128;2022-07-22T06:00:48;15.52;;;14.02;;
12151;SDS011;6139;51.274;7.128;2022-07-22T06:01:50;15.23;;;13.63;;
12151;SDS011;6139;51.274;7.128;2022-07-22T06:03:18;15.15;;;13.55;;
12151;SDS011;6139;51.274;7.128;2022-07-22T06:04:20;16.52;;;14.20;;
12151;SDS011;6139;51.274;7.128;2022-07-22T06:05:21;15.68;;;13.15;;
12151;SDS011;6139;51.274;7.128;2022-07-22T06:06:24;17.38;;;13.80;;
12151;SDS011;6139;51.274;7.128;2022-07-22T06:07:25;17.05;;;14.05;;
12151;SDS011;6139;51.274;7.128;2022-07-22T06:08:32;15.13;;;13.68;;
12151;SDS011;6139;51.274;7.128;2022-07-22T06:09:33;16.60;;;13.85;;
12151;SDS011;6139;51.274;7.128;2022-07-22T06:10:35;17.55;;;13.95;;
12151;SDS011;6139;51.274;7.128;2022-07-22T06:11:36;15.35;;;13.73;;
12151;SDS011;6139;51.274;7.128;2022-07-22T06:12:38;15.13;;;13.20;;
12151;SDS011;6139;51.274;7.128;2022-07-22T06:13:40;14.52;;;12.55;;
12151;SDS011;6139;51.274;7.128;2022-07-22T06:14:42;14.75;;;12.38;;
12151;SDS011;6139;51.274;7.128;2022-07-22T06:15:43;13.70;;;11.27;;
12151;SDS011;6139;51.274;7.128;2022-07-22T06:16:46;13.13;;;10.88;;
12151;SDS011;6139;51.274;7.128;2022-07-22T06:17:48;12.80;;;10.68;;
12151;SDS011;6139;51.274;7.128;2022-07-22T06:18:50;13.32;;;10.63;;